Pagina principale
METAR-TAF:

METAR-TAF

Aeroporti :

Ancona, Italia

latitudine: 43-37N, longitudine: 013-22E, altezza: 12 m

Osservazione

Il bollettino è stato emesso 1 ora e 4 minuti fa, alle 11:50 UTC
Vento 13 kt da sud-ovest
Temperature 14°C
Umidità 58%
Pressione 1009 hPa
Visibilità 10 km o più
Nubi sparse ad un'altezza di 5000 ft

METAR: LIPY 161150Z 23013KT 9999 SCT050 14/06 Q1009

Ora: 13:54 (12:54 UTC)

Previsione

Il bollettino è stato emesso 1 ora e 54 minuti fa, alle 11:00 UTC
Previsione valida dal 16 alle 12 UTC al 17 alle 12 UTC
Vento 10 kt da ovest/sud-ovest
Visibilità 10 km o più
Nubi sparse ad un'altezza di 4000 ft
Temporaneamente
dal 16 alle 22 UTC al 17 alle 06 UTC
Vento 20 kt da ovest/sud-ovest con raffiche fino a 30 kt
Evoluzione graduale
dal 17 alle 08 UTC al 17 alle 11 UTC
Vento 20 kt da ovest/nord-ovest con raffiche fino a 30 kt

TAF: LIPY 161100Z 1612/1712 24010KT 9999 SCT040 TEMPO 1622/1706 24020G30KT BECMG 1708/1711 30020G30KT

Osservazioni e previsioni meteorologiche di più di 4000 aeroporti (messaggi METAR e TAF).

Le stazioni disponibili sono rappresentate dai dischi gialli e rossi sulla carta.

Puntare il mouse per vedere il nome della stazione.

Clicca sopra per visualizzare le osservazioni e previsioni meteorologiche.

Per cambiare la mappa : fare clic sui pulsanti verdi con una croce nera per ingrandire, il pulsante verde con un trattino per diminuire, o sulla freccia verde per le mappe adiacenti.


METAR-TAF: